createdAt,value
2018-05-15T00:00:23.167Z,14.20
2018-05-15T00:02:51.179Z,14.20
2018-05-15T00:05:19.948Z,14.20
2018-05-15T00:07:47.946Z,14.10
2018-05-15T00:10:15.939Z,14.00
2018-05-15T00:12:43.944Z,14.00
2018-05-15T00:15:12.709Z,13.90
2018-05-15T00:17:40.725Z,13.90
2018-05-15T00:20:08.726Z,13.90
2018-05-15T00:22:36.723Z,13.90
2018-05-15T00:25:05.082Z,13.90
2018-05-15T00:27:33.888Z,13.70
2018-05-15T00:30:02.708Z,13.70
2018-05-15T00:32:30.747Z,13.60
2018-05-15T00:34:58.795Z,13.60
2018-05-15T00:37:28.447Z,13.60
2018-05-15T00:39:56.479Z,13.70
2018-05-15T00:42:24.531Z,13.60
2018-05-15T00:44:52.709Z,13.50
2018-05-15T00:47:20.780Z,13.50
2018-05-15T00:49:48.800Z,13.50
2018-05-15T00:52:17.614Z,13.60
2018-05-15T00:54:45.651Z,13.60
2018-05-15T00:57:13.717Z,13.60
2018-05-15T00:59:41.771Z,13.70
2018-05-15T01:02:09.807Z,13.60
2018-05-15T01:04:37.869Z,13.60
2018-05-15T01:07:05.899Z,13.60
2018-05-15T01:09:34.740Z,13.70
2018-05-15T01:12:02.771Z,13.60
2018-05-15T01:14:30.830Z,13.60
2018-05-15T01:16:58.875Z,13.60
2018-05-15T01:19:26.919Z,13.60
2018-05-15T01:21:56.483Z,13.30
2018-05-15T01:24:24.523Z,13.30
2018-05-15T01:26:52.583Z,13.50
2018-05-15T01:29:20.635Z,13.40
2018-05-15T01:31:48.673Z,13.30
2018-05-15T01:34:16.727Z,13.50
2018-05-15T01:36:44.771Z,13.40
2018-05-15T01:39:13.600Z,13.40
2018-05-15T01:41:41.643Z,13.30
2018-05-15T01:44:09.707Z,13.40
2018-05-15T01:46:37.752Z,13.40
2018-05-15T01:49:05.788Z,13.30
2018-05-15T01:51:34.611Z,13.30
2018-05-15T01:54:03.431Z,13.10
2018-05-15T01:56:31.506Z,13.10
2018-05-15T01:58:59.571Z,13.10
2018-05-15T02:01:28.390Z,13.20
2018-05-15T02:03:56.449Z,13.10
2018-05-15T02:06:24.491Z,13.10
2018-05-15T02:08:52.567Z,13.00
2018-05-15T02:11:20.596Z,13.00
2018-05-15T02:13:48.651Z,12.90
2018-05-15T02:16:16.691Z,12.90
2018-05-15T02:18:45.503Z,12.90
2018-05-15T02:21:13.571Z,12.80
2018-05-15T02:23:42.368Z,13.00
2018-05-15T02:26:11.188Z,12.90
2018-05-15T02:28:39.221Z,12.80
2018-05-15T02:31:07.280Z,13.00
2018-05-15T02:33:35.308Z,12.90
2018-05-15T02:36:03.376Z,12.80
2018-05-15T02:38:31.435Z,12.70
2018-05-15T02:40:59.484Z,12.80
2018-05-15T02:43:27.568Z,12.80
2018-05-15T02:45:56.372Z,12.60
2018-05-15T02:48:25.191Z,12.60
2018-05-15T02:50:53.237Z,12.60
2018-05-15T02:53:21.301Z,12.60
2018-05-15T02:55:49.370Z,12.50
2018-05-15T02:58:17.393Z,12.50
2018-05-15T03:00:45.455Z,12.40
2018-05-15T03:03:13.483Z,12.40
2018-05-15T03:05:41.535Z,12.40
2018-05-15T03:08:09.575Z,12.30
2018-05-15T03:10:37.622Z,12.30
2018-05-15T03:13:06.451Z,12.40
2018-05-15T03:15:34.482Z,12.30
2018-05-15T03:18:02.546Z,12.40
2018-05-15T03:20:30.572Z,12.30
2018-05-15T03:22:59.387Z,12.20
2018-05-15T03:25:27.424Z,12.20
2018-05-15T03:27:55.479Z,12.20
2018-05-15T03:30:23.535Z,12.00
2018-05-15T03:32:51.566Z,12.10
2018-05-15T03:35:19.621Z,12.00
2018-05-15T03:37:47.647Z,12.10
2018-05-15T03:40:15.703Z,12.10
2018-05-15T03:42:43.743Z,12.10
2018-05-15T03:45:12.571Z,12.30
2018-05-15T03:47:40.630Z,12.20
2018-05-15T03:50:09.423Z,12.30
2018-05-15T03:52:38.251Z,12.30
2018-05-15T03:55:06.300Z,12.20
2018-05-15T03:57:35.148Z,12.30
2018-05-15T04:00:03.185Z,12.30
2018-05-15T04:02:43.019Z,12.30
2018-05-15T04:05:22.762Z,12.30
2018-05-15T04:08:15.655Z,12.30
2018-05-15T04:10:44.031Z,12.30
2018-05-15T04:13:12.076Z,12.40
2018-05-15T04:15:41.104Z,12.60
2018-05-15T04:18:09.151Z,12.70
2018-05-15T04:20:37.954Z,12.70
2018-05-15T04:23:06.779Z,12.90
2018-05-15T04:25:34.839Z,12.80
2018-05-15T04:28:03.702Z,13.10
2018-05-15T04:30:31.710Z,13.00
2018-05-15T04:33:01.266Z,13.40
2018-05-15T04:35:29.315Z,13.30
2018-05-15T04:37:57.365Z,13.40
2018-05-15T04:40:25.915Z,13.50
2018-05-15T04:42:54.730Z,13.60
2018-05-15T04:45:22.794Z,13.60
2018-05-15T04:47:51.613Z,13.70
2018-05-15T04:50:19.655Z,13.70
2018-05-15T04:52:47.711Z,13.80
2018-05-15T04:55:15.744Z,13.80
2018-05-15T04:57:44.563Z,14.00
2018-05-15T05:00:12.603Z,14.00
2018-05-15T05:02:40.647Z,14.10
2018-05-15T05:05:08.698Z,14.20
2018-05-15T05:07:37.501Z,14.20
2018-05-15T05:10:06.324Z,14.20
2018-05-15T05:12:34.365Z,14.10
2018-05-15T05:15:02.413Z,14.20
2018-05-15T05:17:30.442Z,14.20
2018-05-15T05:19:58.485Z,14.30
2018-05-15T05:22:26.535Z,14.50
2018-05-15T05:24:54.579Z,14.50
2018-05-15T05:27:25.151Z,14.50
2018-05-15T05:29:53.995Z,14.50
2018-05-15T05:32:22.060Z,14.50
2018-05-15T05:34:50.094Z,14.60
2018-05-15T05:37:19.310Z,14.70
2018-05-15T05:39:49.011Z,14.80
2018-05-15T05:42:17.055Z,14.80
2018-05-15T05:44:45.119Z,14.90
2018-05-15T05:47:14.056Z,15.10
2018-05-15T05:49:42.111Z,15.00
2018-05-15T05:52:10.924Z,15.30
2018-05-15T05:54:39.014Z,15.30
2018-05-15T05:57:07.050Z,15.40
2018-05-15T05:59:35.124Z,15.40
2018-05-15T06:02:03.182Z,15.40
2018-05-15T06:04:31.219Z,15.40
2018-05-15T06:07:00.052Z,15.40
2018-05-15T06:09:28.094Z,15.40
2018-05-15T06:11:56.949Z,15.60
2018-05-15T06:14:25.002Z,15.50
2018-05-15T06:16:53.831Z,15.70
2018-05-15T06:19:22.707Z,15.70
2018-05-15T06:21:51.515Z,15.80
2018-05-15T06:24:20.339Z,15.80
2018-05-15T06:26:48.373Z,15.80
2018-05-15T06:29:16.450Z,15.90
2018-05-15T06:31:44.487Z,15.90
2018-05-15T06:34:12.552Z,15.90
2018-05-15T06:36:41.502Z,16.10
2018-05-15T06:39:09.532Z,16.00
2018-05-15T06:41:37.587Z,16.20
2018-05-15T06:44:05.625Z,16.40
2018-05-15T06:46:33.699Z,16.50
2018-05-15T06:49:02.499Z,16.50
2018-05-15T06:51:31.320Z,16.40
2018-05-15T06:53:59.374Z,16.30
2018-05-15T06:56:28.179Z,16.60
2018-05-15T06:58:57.004Z,16.60
2018-05-15T07:01:25.034Z,16.50
2018-05-15T07:03:53.095Z,16.70
2018-05-15T07:06:21.126Z,16.60
2018-05-15T07:08:49.952Z,17.00
2018-05-15T07:11:18.024Z,16.90
2018-05-15T07:13:47.135Z,17.20
2018-05-15T07:16:15.955Z,17.30
2018-05-15T07:18:43.987Z,17.20
2018-05-15T07:21:12.039Z,17.40
2018-05-15T07:23:40.075Z,17.40
2018-05-15T07:26:08.875Z,17.40
2018-05-15T07:28:37.696Z,17.60
2018-05-15T07:31:05.759Z,17.50
2018-05-15T07:33:34.591Z,17.70
2018-05-15T07:36:02.631Z,17.70
2018-05-15T07:38:30.699Z,17.90
2018-05-15T07:40:58.732Z,18.10
2018-05-15T07:43:26.799Z,18.20
2018-05-15T07:45:55.600Z,18.10
2018-05-15T07:48:24.414Z,18.20
2018-05-15T07:50:52.497Z,18.10
2018-05-15T07:53:21.304Z,18.20
2018-05-15T07:55:49.367Z,18.20
2018-05-15T07:58:18.191Z,18.10
2018-05-15T08:00:46.247Z,18.10
2018-05-15T08:03:14.294Z,18.30
2018-05-15T08:05:42.347Z,18.60
2018-05-15T08:08:10.428Z,18.60
2018-05-15T08:10:39.250Z,18.90
2018-05-15T08:13:07.311Z,18.80
2018-05-15T08:15:35.348Z,18.90
2018-05-15T08:18:03.419Z,19.00
2018-05-15T08:20:31.471Z,19.10
2018-05-15T08:22:59.527Z,19.10
2018-05-15T08:25:28.354Z,18.90
2018-05-15T08:27:56.426Z,18.80
2018-05-15T08:30:25.248Z,19.20
2018-05-15T08:32:53.286Z,19.10
2018-05-15T08:35:21.348Z,19.30
2018-05-15T08:37:49.387Z,19.30
2018-05-15T08:40:17.448Z,19.40
2018-05-15T08:42:46.257Z,19.60
2018-05-15T08:45:15.145Z,19.80
2018-05-15T08:47:43.176Z,19.70
2018-05-15T08:50:11.215Z,20.00
2018-05-15T08:52:39.304Z,20.00
2018-05-15T08:55:08.139Z,20.30
2018-05-15T08:57:36.189Z,20.20
2018-05-15T09:00:05.040Z,20.60
2018-05-15T09:02:33.080Z,20.50
2018-05-15T09:05:01.912Z,20.90
2018-05-15T09:07:29.955Z,20.80
2018-05-15T09:09:58.020Z,20.70
2018-05-15T09:12:26.087Z,20.80
2018-05-15T09:14:54.132Z,20.80
2018-05-15T09:17:22.960Z,20.70
2018-05-15T09:19:50.998Z,20.60
2018-05-15T09:22:19.068Z,20.10
2018-05-15T09:24:48.617Z,20.00
2018-05-15T09:27:17.444Z,20.50
2018-05-15T09:29:45.500Z,20.40
2018-05-15T09:32:14.313Z,20.10
2018-05-15T09:34:42.727Z,20.00
2018-05-15T09:37:10.767Z,19.90
2018-05-15T09:39:39.608Z,20.80
2018-05-15T09:42:08.492Z,20.80
2018-05-15T09:44:36.567Z,20.80
2018-05-15T09:47:06.023Z,21.60
2018-05-15T09:49:34.091Z,21.50
2018-05-15T09:52:02.552Z,21.30
2018-05-15T09:54:30.599Z,20.90
2018-05-15T09:56:58.653Z,21.00
2018-05-15T09:59:28.147Z,21.00
2018-05-15T10:01:56.979Z,20.60
2018-05-15T10:04:25.025Z,20.50
2018-05-15T10:06:53.853Z,21.20
2018-05-15T10:09:21.896Z,21.10
2018-05-15T10:11:49.963Z,21.50
2018-05-15T10:14:18.101Z,21.50
2018-05-15T10:16:46.079Z,21.20
2018-05-15T10:19:14.147Z,21.00
2018-05-15T10:21:43.375Z,20.20
2018-05-15T10:24:11.449Z,20.20
2018-05-15T10:26:40.261Z,20.40
2018-05-15T10:29:09.095Z,20.70
2018-05-15T10:31:37.151Z,20.60
2018-05-15T10:34:05.216Z,20.80
2018-05-15T10:36:34.023Z,21.20
2018-05-15T10:39:02.111Z,21.10
2018-05-15T10:41:30.928Z,21.80
2018-05-15T10:43:59.018Z,21.80
2018-05-15T10:46:27.799Z,22.20
2018-05-15T10:48:56.635Z,21.60
2018-05-15T10:51:24.704Z,21.50
2018-05-15T10:53:52.754Z,21.40
2018-05-15T10:56:21.587Z,22.50
2018-05-15T10:58:49.633Z,22.40
2018-05-15T11:01:17.755Z,22.40
2018-05-15T11:03:46.651Z,23.30
2018-05-15T11:06:15.529Z,23.40
2018-05-15T11:08:43.519Z,23.30
2018-05-15T11:11:12.344Z,23.20
2018-05-15T11:13:40.389Z,23.10
2018-05-15T11:16:08.448Z,22.70
2018-05-15T11:18:43.522Z,22.70
2018-05-15T11:21:23.467Z,22.50
2018-05-15T11:24:03.243Z,22.80
2018-05-15T11:26:31.307Z,23.40
2018-05-15T11:28:59.399Z,24.00
2018-05-15T11:31:27.481Z,24.20
2018-05-15T11:33:55.545Z,24.00
2018-05-15T11:36:23.579Z,23.50
2018-05-15T11:38:51.641Z,22.20
2018-05-15T11:41:19.675Z,21.70
2018-05-15T11:43:47.747Z,21.20
2018-05-15T11:46:16.554Z,21.00
2018-05-15T11:48:45.326Z,20.90
2018-05-15T11:51:13.519Z,21.10
2018-05-15T11:53:40.787Z,21.00
2018-05-15T11:56:09.640Z,21.10
2018-05-15T11:58:37.696Z,21.00
2018-05-15T12:01:05.780Z,21.20
2018-05-15T12:03:33.821Z,21.00
2018-05-15T12:06:01.888Z,20.70
2018-05-15T12:08:29.928Z,20.60
2018-05-15T12:10:57.995Z,20.70
2018-05-15T12:13:26.843Z,20.40
2018-05-15T12:15:54.914Z,20.40
2018-05-15T12:18:22.999Z,20.30
2018-05-15T12:20:51.049Z,20.60
2018-05-15T12:23:19.099Z,20.60
2018-05-15T12:25:47.144Z,20.70
2018-05-15T12:28:15.211Z,20.90
2018-05-15T12:30:44.023Z,21.30
2018-05-15T12:33:12.079Z,21.30
2018-05-15T12:35:40.139Z,21.30
2018-05-15T12:38:08.219Z,21.40
2018-05-15T12:40:36.286Z,21.00
2018-05-15T12:43:04.613Z,21.40
2018-05-15T12:45:32.656Z,21.60
2018-05-15T12:48:00.745Z,21.60
2018-05-15T12:50:28.784Z,21.70
2018-05-15T12:52:56.847Z,22.10
2018-05-15T12:55:26.412Z,21.80
2018-05-15T12:57:54.483Z,21.80
2018-05-15T13:00:23.320Z,21.10
2018-05-15T13:02:51.383Z,21.00
2018-05-15T13:05:19.452Z,20.80
2018-05-15T13:07:47.527Z,20.80
2018-05-15T13:10:15.597Z,20.90
2018-05-15T13:12:43.641Z,20.70
2018-05-15T13:15:11.695Z,20.60
2018-05-15T13:17:39.754Z,20.70
2018-05-15T13:20:09.652Z,20.30
2018-05-15T13:22:37.732Z,20.40
2018-05-15T13:25:05.784Z,20.60
2018-05-15T13:27:33.832Z,20.40
2018-05-15T13:30:01.885Z,20.60
2018-05-15T13:32:29.972Z,20.60
2018-05-15T13:34:58.011Z,20.40
2018-05-15T13:37:26.840Z,20.50
2018-05-15T13:39:54.876Z,20.40
2018-05-15T13:42:23.736Z,20.90
2018-05-15T13:44:51.800Z,20.90
2018-05-15T13:47:19.836Z,20.80
2018-05-15T13:49:48.670Z,20.50
2018-05-15T13:52:16.749Z,20.40
2018-05-15T13:54:45.584Z,20.70
2018-05-15T13:57:13.628Z,20.70
2018-05-15T13:59:42.472Z,20.80
2018-05-15T14:02:10.526Z,20.80
2018-05-15T14:04:39.365Z,20.90
2018-05-15T14:07:07.420Z,20.80
2018-05-15T14:09:35.491Z,20.90
2018-05-15T14:12:04.323Z,21.10
2018-05-15T14:14:32.379Z,21.10
2018-05-15T14:17:01.208Z,20.90
2018-05-15T14:19:29.243Z,20.80
2018-05-15T14:21:57.307Z,20.50
2018-05-15T14:24:25.381Z,20.40
2018-05-15T14:26:53.435Z,20.30
2018-05-15T14:29:21.468Z,20.20
2018-05-15T14:31:49.539Z,20.00
2018-05-15T14:34:17.590Z,20.00
2018-05-15T14:36:45.660Z,19.80
2018-05-15T14:39:13.736Z,19.50
2018-05-15T14:41:54.508Z,19.00
2018-05-15T14:44:23.331Z,18.90
2018-05-15T14:46:51.383Z,18.90
2018-05-15T14:49:19.450Z,18.80
2018-05-15T14:51:47.968Z,18.60
2018-05-15T14:54:16.027Z,18.40
2018-05-15T14:56:44.190Z,18.20
2018-05-15T14:59:13.807Z,17.40
2018-05-15T15:01:41.875Z,17.30
2018-05-15T15:04:09.911Z,17.20
2018-05-15T15:06:39.487Z,16.70
2018-05-15T15:09:07.609Z,16.70
2018-05-15T15:11:35.674Z,16.60
2018-05-15T15:14:03.724Z,16.50
2018-05-15T15:16:32.559Z,16.60
2018-05-15T15:19:00.642Z,16.50
2018-05-15T15:21:28.975Z,16.40
2018-05-15T15:23:57.110Z,16.20
2018-05-15T15:26:25.148Z,16.40
2018-05-15T15:28:53.200Z,16.40
2018-05-15T15:31:21.252Z,16.40
2018-05-15T15:33:49.315Z,16.20
2018-05-15T15:36:18.125Z,16.90
2018-05-15T15:38:47.433Z,17.30
2018-05-15T15:41:16.248Z,17.50
2018-05-15T15:43:45.128Z,17.70
2018-05-15T15:46:13.124Z,17.70
2018-05-15T15:48:41.972Z,17.60
2018-05-15T15:51:10.042Z,17.50
2018-05-15T15:53:38.075Z,17.60
2018-05-15T15:56:06.916Z,18.00
2018-05-15T15:58:34.957Z,17.90
2018-05-15T16:01:03.784Z,18.40
2018-05-15T16:03:31.828Z,18.40
2018-05-15T16:05:59.882Z,18.50
2018-05-15T16:08:28.042Z,18.50
2018-05-15T16:10:56.103Z,18.10
2018-05-15T16:13:24.912Z,17.90
2018-05-15T16:15:53.743Z,17.80
2018-05-15T16:18:21.820Z,17.70
2018-05-15T16:20:49.849Z,17.90
2018-05-15T16:23:17.929Z,17.90
2018-05-15T16:25:45.973Z,17.70
2018-05-15T16:28:14.995Z,17.60
2018-05-15T16:30:43.038Z,17.50
2018-05-15T16:33:11.868Z,16.90
2018-05-15T16:35:39.932Z,16.80
2018-05-15T16:38:08.739Z,16.40
2018-05-15T16:40:36.971Z,16.40
2018-05-15T16:43:05.053Z,16.20
2018-05-15T16:45:33.111Z,16.10
2018-05-15T16:48:01.161Z,16.00
2018-05-15T16:50:29.979Z,15.90
2018-05-15T16:52:58.876Z,15.80
2018-05-15T16:55:27.704Z,15.80
2018-05-15T16:57:56.012Z,15.80
2018-05-15T17:00:24.071Z,15.90
2018-05-15T17:02:52.107Z,15.80
2018-05-15T17:05:20.169Z,15.90
2018-05-15T17:07:48.264Z,15.80
2018-05-15T17:10:16.288Z,15.80
2018-05-15T17:12:45.083Z,15.70
2018-05-15T17:15:13.908Z,15.50
2018-05-15T17:17:41.977Z,15.50
2018-05-15T17:20:10.775Z,14.40
2018-05-15T17:22:38.835Z,15.30
2018-05-15T17:25:06.940Z,15.40
2018-05-15T17:27:35.778Z,15.30
2018-05-15T17:30:03.816Z,15.20
2018-05-15T17:32:32.432Z,15.30
2018-05-15T17:35:01.223Z,14.90
2018-05-15T17:37:30.053Z,14.90
2018-05-15T17:39:58.099Z,14.80
2018-05-15T17:42:26.152Z,14.90
2018-05-15T17:44:54.389Z,14.80
2018-05-15T17:47:23.274Z,14.70
2018-05-15T17:49:52.103Z,14.60
2018-05-15T17:52:20.143Z,14.60
2018-05-15T17:54:49.716Z,14.70
2018-05-15T17:57:17.739Z,14.60
2018-05-15T17:59:45.888Z,14.80
2018-05-15T18:02:13.864Z,14.70
2018-05-15T18:04:41.923Z,14.60
2018-05-15T18:07:10.774Z,14.40
2018-05-15T18:09:39.546Z,14.30
2018-05-15T18:12:07.620Z,14.30
2018-05-15T18:14:36.476Z,14.20
2018-05-15T18:17:04.524Z,14.10
2018-05-15T18:19:32.559Z,14.10
2018-05-15T18:22:00.619Z,14.10
2018-05-15T18:24:28.669Z,13.90
2018-05-15T18:26:56.745Z,14.00
2018-05-15T18:29:25.542Z,13.90
2018-05-15T18:31:54.368Z,13.90
2018-05-15T18:34:22.423Z,13.90
2018-05-15T18:36:51.231Z,13.90
2018-05-15T18:39:20.048Z,13.80
2018-05-15T18:41:48.102Z,13.70
2018-05-15T18:44:16.144Z,13.70
2018-05-15T18:46:44.200Z,13.60
2018-05-15T18:49:12.260Z,13.70
2018-05-15T18:51:41.071Z,13.50
2018-05-15T18:54:09.892Z,13.60
2018-05-15T18:56:38.345Z,13.50
2018-05-15T18:59:08.419Z,13.40
2018-05-15T19:01:36.466Z,13.40
2018-05-15T19:04:04.523Z,13.40
2018-05-15T19:06:32.564Z,13.30
2018-05-15T19:09:00.709Z,13.20
2018-05-15T19:11:29.299Z,13.30
2018-05-15T19:13:58.943Z,13.20
2018-05-15T19:16:26.935Z,13.20
2018-05-15T19:18:55.754Z,13.10
2018-05-15T19:21:24.964Z,13.10
2018-05-15T19:23:53.033Z,13.10
2018-05-15T19:26:21.847Z,13.00
2018-05-15T19:28:49.933Z,12.90
2018-05-15T19:31:17.982Z,12.90
2018-05-15T19:33:52.099Z,13.00
2018-05-15T19:36:20.179Z,13.10
2018-05-15T19:38:48.467Z,13.10
2018-05-15T19:41:19.443Z,13.00
2018-05-15T19:43:47.497Z,13.10
2018-05-15T19:46:15.540Z,13.10
2018-05-15T19:48:44.737Z,13.10
2018-05-15T19:51:13.536Z,13.00
2018-05-15T19:53:42.649Z,13.10
2018-05-15T19:56:11.454Z,13.10
2018-05-15T19:58:40.285Z,13.20
2018-05-15T20:01:08.356Z,13.10
2018-05-15T20:03:36.427Z,13.10
2018-05-15T20:06:04.464Z,13.20
2018-05-15T20:08:32.512Z,13.20
2018-05-15T20:11:00.588Z,13.10
2018-05-15T20:13:28.639Z,13.20
2018-05-15T20:15:56.688Z,13.20
2018-05-15T20:18:24.725Z,13.10
2018-05-15T20:20:52.809Z,13.10
2018-05-15T20:23:22.921Z,13.10
2018-05-15T20:25:50.988Z,13.00
2018-05-15T20:28:19.060Z,13.10
2018-05-15T20:30:47.113Z,13.10
2018-05-15T20:33:15.161Z,13.00
2018-05-15T20:35:43.978Z,13.00
2018-05-15T20:38:12.781Z,12.90
2018-05-15T20:40:41.621Z,12.90
2018-05-15T20:43:09.651Z,12.90
2018-05-15T20:45:38.500Z,13.00
2018-05-15T20:48:06.568Z,12.90
2018-05-15T20:50:34.621Z,13.10
2018-05-15T20:53:02.688Z,13.10
2018-05-15T20:55:30.724Z,13.20
2018-05-15T20:57:58.779Z,13.20
2018-05-15T21:00:27.586Z,13.10
2018-05-15T21:02:56.408Z,13.10
2018-05-15T21:05:24.443Z,13.00
2018-05-15T21:07:52.499Z,13.00
2018-05-15T21:10:20.564Z,13.00
2018-05-15T21:12:48.699Z,13.10
2018-05-15T21:15:16.944Z,13.00
2018-05-15T21:17:44.998Z,13.00
2018-05-15T21:20:13.834Z,13.10
2018-05-15T21:22:41.867Z,13.00
2018-05-15T21:25:09.924Z,13.10
2018-05-15T21:27:37.982Z,12.90
2018-05-15T21:30:06.069Z,12.90
2018-05-15T21:32:34.136Z,12.90
2018-05-15T21:35:02.175Z,13.00
2018-05-15T21:37:30.291Z,13.00
2018-05-15T21:39:59.087Z,12.90
2018-05-15T21:42:27.911Z,12.90
2018-05-15T21:44:55.959Z,12.90
2018-05-15T21:47:24.063Z,12.90
2018-05-15T21:49:52.983Z,12.90
2018-05-15T21:52:21.048Z,12.80
2018-05-15T21:54:49.847Z,12.90
2018-05-15T21:57:18.675Z,12.80
2018-05-15T21:59:46.784Z,12.80
2018-05-15T22:02:15.229Z,12.90
2018-05-15T22:04:44.069Z,12.60
2018-05-15T22:07:12.106Z,12.60
2018-05-15T22:09:40.950Z,12.60
2018-05-15T22:12:20.795Z,12.50
2018-05-15T22:15:00.684Z,12.70
2018-05-15T22:17:40.648Z,12.80
2018-05-15T22:20:20.695Z,12.80
2018-05-15T22:22:48.256Z,12.80
2018-05-15T22:25:16.315Z,12.90
2018-05-15T22:27:45.124Z,12.80
2018-05-15T22:30:13.948Z,12.90
2018-05-15T22:32:42.004Z,12.80
2018-05-15T22:35:10.842Z,12.80
2018-05-15T22:37:38.884Z,12.70
2018-05-15T22:40:07.716Z,12.80
2018-05-15T22:42:35.779Z,12.80
2018-05-15T22:45:04.584Z,12.80
2018-05-15T22:47:33.415Z,12.80
2018-05-15T22:50:01.444Z,12.80
2018-05-15T22:52:31.941Z,12.90
2018-05-15T22:54:59.981Z,12.90
2018-05-15T22:57:28.798Z,12.80
2018-05-15T22:59:57.952Z,12.80
2018-05-15T23:02:25.999Z,12.70
2018-05-15T23:04:54.826Z,12.60
2018-05-15T23:07:22.860Z,12.60
2018-05-15T23:09:50.932Z,12.60
2018-05-15T23:12:18.974Z,12.60
2018-05-15T23:14:47.035Z,12.60
2018-05-15T23:17:15.973Z,12.60
2018-05-15T23:19:44.039Z,12.60
2018-05-15T23:25:02.859Z,12.60
2018-05-15T23:27:30.911Z,12.60
2018-05-15T23:29:59.703Z,12.70
2018-05-15T23:32:28.583Z,12.70
2018-05-15T23:34:57.419Z,12.70
2018-05-15T23:37:26.232Z,12.80
2018-05-15T23:39:54.275Z,12.70
2018-05-15T23:42:22.335Z,12.80
2018-05-15T23:44:50.487Z,12.70
2018-05-15T23:47:18.556Z,12.80
2018-05-15T23:49:47.837Z,12.70
2018-05-15T23:52:15.880Z,12.70
2018-05-15T23:54:43.930Z,12.70
2018-05-15T23:57:12.751Z,12.80
2018-05-15T23:59:40.819Z,12.80
